Station: Stenhouse Bay

  Atmospheric Gas Attenuation - ITU Rec 676-11   --------------- db/100km ---------------
Date Time Temp RH % AH g/m3 Dew Point Wind Direction Speed kph Gust kph Barometer mB Rainfall Since 9am 24GHz 47GHz 76GHz 122GHz 134GHz 241GHz
16 19:20 16.9 68 9.78 11.1 22 28 1013.1 0 21.9 26.9 42.9 112.8 109.8 378.8
16 19:10 17.3 68 10.02 11.5 19 24 1013.1 0 22.4 27.1 43.7 114.8 112.4 388.0
16 19:00 17.4 68 10.08 11.4 22 28 1020.3 0 22.5 27.5 44.2 116.1 113.7 392.5
16 18:50 17.8 65 9.86 11.3 17 20 1013.1 0 22.1 26.7 42.7 112.4 109.6 378.2
16 18:40 17.8 65 9.86 11.1 24 28 1013.1 0 22.1 26.7 42.7 112.4 109.6 378.2
16 18:30 17.8 63 9.56 10.7 24 32 1020 0 21.4 26.5 41.9 109.9 106.3 366.5
16 18:20 18 63 9.68 10.8 24 30 1013.1 0 21.7 26.4 41.9 110.2 107.0 369.0
16 18:10 18.7 61 9.77 11 22 30 1013.1 0 21.8 26.3 41.9 110.2 107.2 369.8
16 18:00 18.9 57 9.23 10.2 20 30 1020.1 0 20.7 25.7 40.0 105.0 100.6 346.8
16 17:50 19.1 58 9.51 10.6 24 28 1013.1 0 21.3 25.8 40.7 106.9 103.3 356.4
16 17:40 19 59 9.61 11 17 22 1013.1 0 21.5 26.0 41.1 108.1 104.7 361.3
16 17:30 19.3 60 9.95 11.3 20 30 1020.2 0 22.2 26.7 42.6 112.0 109.3 377.2
16 17:20 19.3 59 9.79 11.1 17 20 1013.1 0 21.8 26.2 41.7 109.5 106.6 367.9
16 17:10 19.2 58 9.56 10.7 19 22 1013.1 0 21.4 25.9 40.8 107.3 103.8 358.1
16 17:00 18.7 59 9.45 10.5 24 32 1020.2 0 21.1 26.1 41.0 107.6 103.7 357.5
16 16:50 18.8 59 9.5 10.6 24 32 1013.1 0 21.3 25.9 40.8 107.2 103.6 357.3
16 16:40 18.9 54 8.75 9.6 30 35 1013.1 0 19.7 24.7 37.9 99.4 94.0 323.9
16 16:30 18.1 60 9.27 10.2 28 37 1020.4 0 20.8 26.0 40.6 106.5 102.2 352.2
16 16:20 18.1 58 8.96 9.9 28 32 1013.1 0 20.1 25.2 39.1 102.6 97.6 336.4
16 16:10 18.5 57 9.02 9.8 22 28 1013.1 0 20.3 25.2 39.1 102.7 97.9 337.3
16 16:00 19.3 56 9.29 10.3 22 32 1020.7 0 20.8 25.7 40.1 105.2 100.9 347.9
16 15:50 19.1 55 9.02 9.8 24 30 1013.1 0 20.2 25.0 38.8 101.9 97.1 334.8
16 15:40 19.5 54 9.06 9.9 24 30 1013.1 0 20.3 25.0 38.8 101.8 97.2 334.9
16 15:30 19 54 8.8 9.5 24 35 1021.1 0 19.8 25.0 38.4 100.6 95.2 327.8
16 15:20 19.3 52 8.62 9.2 26 32 1013.1 0 19.4 24.4 37.2 97.7 92.0 316.6
16 15:10 19.2 52 8.57 9.1 26 33 1013.1 0 19.3 24.3 37.1 97.3 91.5 314.9
16 15:00 19.2 52 8.57 9.1 24 33 1021.5 0 19.3 24.6 37.4 98.1 92.1 317.1
16 14:50 19.5 52 8.73 9.6 19 24 1013.1 0 19.6 24.5 37.5 98.5 93.1 320.6
16 14:40 19.6 51 8.61 9.4 24 30 1013.1 0 19.3 24.3 37.0 97.2 91.5 315.0
16 14:30 19.1 53 8.69 9.3 26 35 1021.7 0 19.5 24.8 37.9 99.5 93.7 322.7
16 14:20 18.9 54 8.75 9.4 22 28 1013.1 0 19.7 24.7 37.9 99.4 94.0 323.9
16 14:10 18.7 52 8.32 8.6 28 32 1013.1 0 18.8 24.1 36.4 95.4 89.0 306.1
16 14:00 19.6 48 8.1 8.3 20 30 1021.8 0 18.3 23.8 35.5 93.0 86.0 295.5
16 13:50 19.3 50 8.29 8.6 24 26 1013.1 0 18.7 23.9 36.0 94.4 87.9 302.6
16 13:40 19.5 51 8.56 9.1 22 28 1013.1 0 19.2 24.2 36.9 96.8 91.0 313.3
16 13:30 18.6 52 8.28 8.6 20 28 1021.8 0 18.7 24.4 36.6 96.0 89.2 307.0
16 13:20 18.1 51 7.88 7.8 19 24 1013.1 0 17.9 23.6 35.0 91.7 84.3 289.6
16 13:10 18 52 7.99 8 19 24 1013.1 0 18.1 23.8 35.5 92.9 85.7 294.6
16 13:00 18.6 51 8.12 8.3 19 28 1021.9 0 18.3 24.1 36.0 94.4 87.3 300.1
16 12:50 19.3 50 8.29 8.6 15 19 1013.1 0 18.7 23.9 36.0 94.4 87.9 302.6
16 12:40 19.8 47 8.03 8.4 15 19 1013.1 0 18.1 23.4 34.8 91.3 84.3 289.8
16 12:30 19.1 49 8.03 8.1 15 26 1022.1 0 18.1 23.9 35.5 92.9 85.7 294.5
16 12:20 19.2 45 7.42 7 13 19 1013.1 0 16.8 22.6 32.9 86.1 77.7 266.5
16 12:10 18.2 46 7.15 6.4 13 15 1013.1 0 16.3 22.5 32.3 84.6 75.4 258.6
16 12:00 18.9 46 7.45 7 15 19 1022.2 0 16.9 23.1 33.5 87.5 78.9 270.8
16 11:50 18.6 47 7.48 7.3 13 17 1013.1 0 17.0 22.9 33.4 87.3 79.0 271.0
16 11:40 18 48 7.37 6.8 13 15 1013.1 0 16.8 22.9 33.2 86.9 78.2 268.4
16 11:30 17.7 49 7.39 6.9 17 22 1022.2 0 16.8 23.3 33.8 88.2 79.4 272.3
16 11:20 17.4 49 7.26 6.8 19 20 1013.1 0 16.6 22.9 33.0 86.5 77.5 265.8
16 11:10 17 49 7.09 6.2 19 20 1013.1 0 16.2 22.7 32.6 85.2 75.9 260.0
16 11:00 17.5 48 7.16 6.4 17 24 1022 0 16.4 23.0 33.0 86.2 76.8 263.2
16 10:50 17.2 49 7.18 6.4 15 17 1013.1 0 16.4 22.8 32.8 85.9 76.8 263.1
16 10:40 16.7 51 7.25 6.5 17 19 1013.1 0 16.6 23.0 33.3 87.1 78.1 267.7
16 10:30 16.9 49 7.05 6.1 15 22 1022.1 0 16.2 23.0 32.8 85.8 76.1 260.6
16 10:20 17.1 50 7.28 6.6 15 17 1013.1 0 16.6 23.0 33.2 87.0 78.0 267.6
16 10:10 16.6 49 6.92 5.8 15 19 1013.1 0 15.9 22.6 32.1 84.0 74.2 254.1
16 10:00 16.4 49 6.84 5.7 15 24 1022.2 0 15.7 22.8 32.3 84.3 74.0 253.3
16 09:50 16.9 46 6.62 5.2 19 20 1013.1 0 15.3 22.0 30.9 80.8 70.4 240.7
16 09:40 17.1 47 6.84 5.7 17 19 1013.1 0 15.7 22.3 31.7 82.7 72.8 249.2
16 09:30 16 49 6.68 5.3 17 24 1022.2 0 15.4 22.7 31.9 83.1 72.5 247.8
16 09:20 16.4 51 7.12 6.2 19 22 1013.1 0 16.3 22.9 32.9 86.2 76.8 263.2
16 09:10 15.7 51 6.82 5.8 17 24 1013.1 0 15.7 22.6 32.1 84.0 73.9 252.7
16 09:00 15.6 53 7.05 6.1 20 28 1022 0 16.2 23.3 33.4 87.2 77.3 264.8
16 08:50 15.4 54 7.09 6.1 22 26 1013.1 0 16.3 23.1 33.2 87.0 77.4 265.2
16 08:40 15.2 54 7.01 5.9 19 22 1013.1 0 16.1 23.0 33.0 86.4 76.6 262.4
16 08:30 15.1 54 6.97 5.9 20 28 1021.8 0 16.1 23.3 33.3 86.9 76.8 262.9
16 08:20 15 53 6.8 5.7 22 28 1013.1 0 15.7 22.8 32.3 84.5 74.3 254.1
16 08:10 15 53 6.8 5.7 22 24 1013.1 0 15.7 22.8 32.3 84.5 74.3 254.1
16 08:00 14.9 55 7.01 6 20 32 1021.6 0 16.2 23.4 33.5 87.5 77.5 265.3
16 07:50 14.9 55 7.01 5.9 15 20 1013.1 0 16.2 23.1 33.1 86.7 76.9 263.4
16 07:40 14.9 56 7.14 6.2 20 26 1013.1 0 16.4 23.3 33.6 88.0 78.5 269.0
16 07:30 14.8 55 6.97 5.9 17 24 1021.4 0 16.1 23.4 33.4 87.2 77.1 263.8
16 07:20 14.7 54 6.8 5.5 17 20 1013.1 0 15.7 22.8 32.5 84.8 74.5 255.0
16 07:10 14.7 55 6.92 5.7 17 20 1013.1 0 16.0 23.0 32.9 86.0 76.0 260.2
16 07:00 14.6 53 6.63 5.1 20 24 1021.1 0 15.4 22.9 32.2 84.0 73.1 249.8
16 06:50 14.6 54 6.76 5.4 20 22 1013.1 0 15.6 22.8 32.3 84.5 74.2 253.6
16 06:40 14.5 53 6.59 5 19 19 1013.1 0 15.3 22.6 31.8 83.0 72.2 246.7
16 06:30 14.4 54 6.68 5.2 15 20 1020.8 0 15.5 23.0 32.4 84.7 73.9 252.5
16 06:20 14.4 53 6.55 4.9 15 19 1013.1 0 15.2 22.5 31.6 82.7 71.8 245.3
16 06:10 14.5 54 6.72 5.5 22 26 1013.1 0 15.6 22.8 32.2 84.3 73.8 252.2
16 06:00 14.3 53 6.51 4.9 15 24 1020.6 0 15.1 22.8 31.8 83.1 71.9 245.5
16 05:50 14.4 51 6.3 4.6 17 20 1013.1 0 14.7 22.2 30.7 80.2 68.8 234.7
16 05:40 14.4 51 6.3 4.4 22 24 1013.1 0 14.7 22.2 30.7 80.2 68.8 234.7
16 05:30 14.4 52 6.43 4.7 22 28 1020.6 0 14.9 22.6 31.5 82.2 70.8 241.8
16 05:20 14.4 51 6.3 4.6 24 28 1013.1 0 14.7 22.2 30.7 80.2 68.8 234.7
16 05:10 14.6 54 6.76 5.6 20 24 1013.1 0 15.6 22.8 32.3 84.5 74.2 253.6
16 04:50 14.5 54 6.72 5.5 26 30 1013.1 0 15.6 22.8 32.2 84.3 73.8 252.2
16 04:40 14.6 56 7.01 5.9 24 28 1013.1 0 16.2 23.2 33.3 87.0 77.2 264.4
16 04:30 14.5 55 6.84 5.6 24 32 1019.9 0 15.8 23.2 32.9 86.1 75.7 258.9
16 04:20 14.6 56 7.01 6.1 24 30 1013.1 0 16.2 23.2 33.3 87.0 77.2 264.4
16 04:10 14.5 56 6.97 5.8 24 26 1013.1 0 16.1 23.2 33.2 86.7 76.8 263.0
16 04:00 14.5 55 6.84 5.6 22 32 1019.9 0 15.8 23.2 32.9 86.1 75.7 258.9
16 03:50 14.5 53 6.59 5 20 22 1013.1 0 15.3 22.6 31.8 83.0 72.2 246.7
16 03:40 14.6 53 6.63 5.1 24 28 1013.1 0 15.4 22.6 31.9 83.3 72.6 248.1
16 03:30 14.5 52 6.47 4.8 28 37 1019.7 0 15.0 22.6 31.6 82.4 71.1 243.0
16 03:20 14.7 55 6.92 5.7 28 33 1013.1 0 16.0 23.0 32.9 86.0 76.0 260.2
16 03:10 14.6 56 7.01 6.1 30 32 1013.1 0 16.2 23.2 33.3 87.0 77.2 264.4
16 03:00 14.6 55 6.88 5.7 28 39 1019.9 0 15.9 23.2 33.1 86.4 76.1 260.3
16 02:50 14.6 56 7.01 6.1 26 32 1013.1 0 16.2 23.2 33.3 87.0 77.2 264.4
16 02:40 14.6 53 6.63 5.1 30 32 1013.1 0 15.4 22.6 31.9 83.3 72.6 248.1

Last Refresh: 16-Jan-2021 19:35:27

Most of the information presented on this site is sourced from the Bureau of Meteorology.  Copyright in all material sourced from the Bureau of Meteorology resides with the Commonwealth of Australia.